createdAt,value
2023-02-13T00:02:46.832Z,71.66
2023-02-13T00:05:48.782Z,71.80
2023-02-13T00:08:50.808Z,72.37
2023-02-13T00:11:52.752Z,72.44
2023-02-13T00:14:59.246Z,72.33
2023-02-13T00:18:02.213Z,72.22
2023-02-13T00:21:10.021Z,71.68
2023-02-13T00:24:12.126Z,72.42
2023-02-13T00:27:14.148Z,72.15
2023-02-13T00:30:16.741Z,71.92
2023-02-13T00:33:18.850Z,72.70
2023-02-13T00:36:22.592Z,72.19
2023-02-13T00:39:24.558Z,73.01
2023-02-13T00:42:26.683Z,73.45
2023-02-13T00:45:28.685Z,72.61
2023-02-13T00:48:32.618Z,73.96
2023-02-13T00:51:34.778Z,73.54
2023-02-13T00:54:36.646Z,73.92
2023-02-13T00:57:38.492Z,73.05
2023-02-13T01:00:40.868Z,72.53
2023-02-13T01:03:43.706Z,72.31
2023-02-13T01:06:45.731Z,73.21
2023-02-13T01:09:47.622Z,73.35
2023-02-13T01:12:49.482Z,72.91
2023-02-13T01:15:51.626Z,72.80
2023-02-13T01:18:54.922Z,72.41
2023-02-13T01:21:57.565Z,73.05
2023-02-13T01:24:59.576Z,72.47
2023-02-13T01:28:05.650Z,72.33
2023-02-13T01:31:08.094Z,72.04
2023-02-13T01:34:10.070Z,71.12
2023-02-13T01:37:12.166Z,71.10
2023-02-13T01:40:15.428Z,71.57
2023-02-13T01:43:18.177Z,71.75
2023-02-13T01:46:29.143Z,72.13
2023-02-13T01:49:32.467Z,72.48
2023-02-13T01:52:37.400Z,72.20
2023-02-13T01:55:47.060Z,71.75
2023-02-13T01:58:53.597Z,72.06
2023-02-13T02:01:58.220Z,72.43
2023-02-13T02:05:02.783Z,71.87
2023-02-13T02:08:09.401Z,72.09
2023-02-13T02:11:22.710Z,71.82
2023-02-13T02:14:26.725Z,71.59
2023-02-13T02:17:31.040Z,72.19
2023-02-13T02:21:09.878Z,72.45
2023-02-13T02:24:14.478Z,72.37
2023-02-13T02:27:53.915Z,72.64
2023-02-13T02:31:02.144Z,73.77
2023-02-13T02:34:41.457Z,72.73
2023-02-13T02:38:04.570Z,71.33
2023-02-13T02:41:45.180Z,70.97
2023-02-13T02:44:55.033Z,70.59
2023-02-13T02:48:21.901Z,71.19
2023-02-13T02:51:48.668Z,71.57
2023-02-13T02:55:22.259Z,72.68
2023-02-13T02:59:09.133Z,72.87
2023-02-13T03:02:31.750Z,72.90
2023-02-13T03:06:04.890Z,72.65
2023-02-13T03:09:31.260Z,72.59
2023-02-13T03:13:20.429Z,73.00
2023-02-13T03:16:44.277Z,72.44
2023-02-13T03:20:20.998Z,73.10
2023-02-13T03:23:47.941Z,72.48
2023-02-13T03:27:04.615Z,72.41
2023-02-13T03:30:26.902Z,72.07
2023-02-13T03:33:44.230Z,71.89
2023-02-13T03:37:19.177Z,72.68
2023-02-13T03:40:32.948Z,72.48
2023-02-13T03:43:51.350Z,72.42
2023-02-13T03:46:57.062Z,72.33
2023-02-13T03:50:08.129Z,72.39
2023-02-13T03:53:13.465Z,72.94
2023-02-13T03:56:37.179Z,73.03
2023-02-13T03:59:39.651Z,72.67
2023-02-13T04:02:55.660Z,72.52
2023-02-13T04:06:12.543Z,71.96
2023-02-13T04:09:14.606Z,73.22
2023-02-13T04:12:21.447Z,73.93
2023-02-13T04:15:34.605Z,73.75
2023-02-13T04:18:38.656Z,74.90
2023-02-13T04:21:41.267Z,74.39
2023-02-13T04:24:43.238Z,73.78
2023-02-13T04:27:45.397Z,73.55
2023-02-13T04:30:47.372Z,73.31
2023-02-13T04:33:49.234Z,73.66
2023-02-13T04:36:51.154Z,73.77
2023-02-13T04:39:53.006Z,73.82
2023-02-13T04:42:55.038Z,73.67
2023-02-13T04:45:57.026Z,73.65
2023-02-13T04:48:59.013Z,73.89
2023-02-13T04:52:00.924Z,73.79
2023-02-13T04:55:02.799Z,73.49
2023-02-13T04:58:04.749Z,73.76
2023-02-13T05:01:17.098Z,73.34
2023-02-13T05:04:19.134Z,73.81
2023-02-13T05:07:21.038Z,73.67
2023-02-13T05:10:22.997Z,73.55
2023-02-13T05:13:24.870Z,73.59
2023-02-13T05:16:26.718Z,74.34
2023-02-13T05:19:28.583Z,75.29
2023-02-13T05:22:49.145Z,75.85
2023-02-13T05:25:51.001Z,75.39
2023-02-13T05:29:11.890Z,75.29
2023-02-13T05:32:13.822Z,75.39
2023-02-13T05:35:15.854Z,76.11
2023-02-13T05:38:17.941Z,76.38
2023-02-13T05:41:19.845Z,76.27
2023-02-13T05:44:21.763Z,76.56
2023-02-13T05:47:23.649Z,76.58
2023-02-13T05:50:25.580Z,77.17
2023-02-13T05:53:29.762Z,76.40
2023-02-13T05:56:32.600Z,77.07
2023-02-13T05:59:34.666Z,76.75
2023-02-13T06:02:36.578Z,77.15
2023-02-13T06:05:38.615Z,76.24
2023-02-13T06:08:41.276Z,76.66
2023-02-13T06:11:43.180Z,75.70
2023-02-13T06:14:45.069Z,75.44
2023-02-13T06:17:47.015Z,74.58
2023-02-13T06:21:22.720Z,75.11
2023-02-13T06:24:24.661Z,74.32
2023-02-13T06:27:26.498Z,75.30
2023-02-13T06:30:28.561Z,75.04
2023-02-13T06:33:30.616Z,75.24
2023-02-13T06:36:32.477Z,75.02
2023-02-13T06:39:34.688Z,74.49
2023-02-13T06:42:36.812Z,75.38
2023-02-13T06:45:38.884Z,74.44
2023-02-13T06:48:41.077Z,74.16
2023-02-13T06:51:43.058Z,73.53
2023-02-13T06:54:48.029Z,74.28
2023-02-13T06:57:50.012Z,74.33
2023-02-13T07:00:52.651Z,73.49
2023-02-13T07:03:54.589Z,74.08
2023-02-13T07:06:58.169Z,73.30
2023-02-13T07:10:00.699Z,72.55
2023-02-13T07:13:05.959Z,72.71
2023-02-13T07:16:08.290Z,73.27
2023-02-13T07:19:10.256Z,73.01
2023-02-13T07:22:12.121Z,73.79
2023-02-13T07:25:14.160Z,73.04
2023-02-13T07:28:16.144Z,73.47
2023-02-13T07:31:18.250Z,73.69
2023-02-13T07:34:20.182Z,74.41
2023-02-13T07:37:22.067Z,74.19
2023-02-13T07:40:24.118Z,74.45
2023-02-13T07:43:25.974Z,74.10
2023-02-13T07:46:27.994Z,75.25
2023-02-13T07:49:30.314Z,74.71
2023-02-13T07:52:33.141Z,73.69
2023-02-13T07:55:35.080Z,73.40
2023-02-13T07:58:40.068Z,72.85
2023-02-13T08:01:41.973Z,71.53
2023-02-13T08:04:46.449Z,72.58
2023-02-13T08:07:48.427Z,71.29
2023-02-13T08:11:08.964Z,72.43
2023-02-13T08:14:10.951Z,72.04
2023-02-13T08:17:13.347Z,70.92
2023-02-13T08:20:15.459Z,71.96
2023-02-13T08:23:17.457Z,70.87
2023-02-13T08:26:19.286Z,69.41
2023-02-13T08:29:21.351Z,68.95
2023-02-13T08:32:24.087Z,68.79
2023-02-13T08:35:29.708Z,68.38
2023-02-13T08:38:31.643Z,68.09
2023-02-13T08:41:34.179Z,68.14
2023-02-13T08:44:36.780Z,66.96
2023-02-13T08:47:39.958Z,66.49
2023-02-13T08:50:42.300Z,66.63
2023-02-13T08:53:44.276Z,67.45
2023-02-13T08:56:46.115Z,64.54
2023-02-13T08:59:48.362Z,63.26
2023-02-13T09:02:50.751Z,65.02
2023-02-13T09:05:52.728Z,63.64
2023-02-13T09:08:55.081Z,63.58
2023-02-13T09:11:57.961Z,62.66
2023-02-13T09:15:00.155Z,62.90
2023-02-13T09:18:01.996Z,64.01
2023-02-13T09:21:07.878Z,64.54
2023-02-13T09:24:10.782Z,63.41
2023-02-13T09:27:12.670Z,63.26
2023-02-13T09:30:23.512Z,62.62
2023-02-13T09:33:26.321Z,62.45
2023-02-13T09:36:28.302Z,61.70
2023-02-13T09:39:30.267Z,61.91
2023-02-13T09:42:36.940Z,61.66
2023-02-13T09:45:46.097Z,61.66
2023-02-13T09:48:52.083Z,61.83
2023-02-13T09:51:57.311Z,62.05
2023-02-13T09:54:59.262Z,61.64
2023-02-13T09:58:22.295Z,61.31
2023-02-13T10:01:30.839Z,60.62
2023-02-13T10:04:48.089Z,62.07
2023-02-13T10:08:12.386Z,61.71
2023-02-13T10:11:34.874Z,62.37
2023-02-13T10:15:11.690Z,61.96
2023-02-13T10:18:21.658Z,60.99
2023-02-13T10:21:30.827Z,61.30
2023-02-13T10:24:39.014Z,62.01
2023-02-13T10:27:46.162Z,61.25
2023-02-13T10:30:59.765Z,61.45
2023-02-13T10:34:03.838Z,60.76
2023-02-13T10:37:14.072Z,60.37
2023-02-13T10:40:16.171Z,60.18
2023-02-13T10:43:21.335Z,60.54
2023-02-13T10:47:00.095Z,59.67
2023-02-13T10:50:21.235Z,59.16
2023-02-13T10:53:45.612Z,59.36
2023-02-13T10:57:06.026Z,59.21
2023-02-13T11:00:46.627Z,59.27
2023-02-13T11:04:00.374Z,59.12
2023-02-13T11:07:04.592Z,59.27
2023-02-13T11:10:15.922Z,59.51
2023-02-13T11:13:30.147Z,59.04
2023-02-13T11:16:58.985Z,59.57
2023-02-13T11:20:08.027Z,59.62
2023-02-13T11:23:30.632Z,58.02
2023-02-13T11:26:38.980Z,58.32
2023-02-13T11:29:56.790Z,57.12
2023-02-13T11:33:05.132Z,57.62
2023-02-13T11:36:13.575Z,57.60
2023-02-13T11:39:23.153Z,57.80
2023-02-13T11:42:37.482Z,57.76
2023-02-13T11:45:39.576Z,59.24
2023-02-13T11:48:43.704Z,57.62
2023-02-13T11:51:51.571Z,56.86
2023-02-13T11:55:05.063Z,58.53
2023-02-13T11:58:10.300Z,57.38
2023-02-13T12:22:07.928Z,55.15
2023-02-13T12:25:27.718Z,56.08
2023-02-13T12:29:18.613Z,55.39
2023-02-13T12:32:35.745Z,56.07
2023-02-13T12:35:52.590Z,55.60
2023-02-13T12:38:54.463Z,55.68
2023-02-13T12:42:22.906Z,55.30
2023-02-13T12:45:38.435Z,55.38
2023-02-13T12:49:03.155Z,55.21
2023-02-13T12:52:22.862Z,54.05
2023-02-13T12:55:43.705Z,53.93
2023-02-13T12:59:05.758Z,54.48
2023-02-13T13:02:49.759Z,54.89
2023-02-13T13:06:16.114Z,54.43
2023-02-13T13:10:10.952Z,54.03
2023-02-13T13:13:37.691Z,54.59
2023-02-13T13:16:54.820Z,54.13
2023-02-13T13:19:56.661Z,54.17
2023-02-13T13:23:17.917Z,54.54
2023-02-13T13:26:26.014Z,55.06
2023-02-13T13:29:44.299Z,54.20
2023-02-13T13:32:50.510Z,53.90
2023-02-13T13:36:07.659Z,53.54
2023-02-13T13:39:47.177Z,54.69
2023-02-13T13:42:57.677Z,55.44
2023-02-13T13:46:06.992Z,56.06
2023-02-13T13:49:42.307Z,56.33
2023-02-13T13:53:20.874Z,55.43
2023-02-13T13:56:22.742Z,56.10
2023-02-13T13:59:33.872Z,55.69
2023-02-13T14:02:47.942Z,55.95
2023-02-13T14:06:04.197Z,55.66
2023-02-13T14:09:06.961Z,56.42
2023-02-13T14:12:30.509Z,56.27
2023-02-13T14:15:38.454Z,56.17
2023-02-13T14:18:46.694Z,56.79
2023-02-13T14:21:48.633Z,56.58
2023-02-13T14:25:21.242Z,57.35
2023-02-13T14:28:27.530Z,57.62
2023-02-13T14:31:31.359Z,57.50
2023-02-13T14:34:39.494Z,57.36
2023-02-13T14:37:52.149Z,57.05
2023-02-13T14:40:54.871Z,57.03
2023-02-13T14:43:57.268Z,57.99
2023-02-13T14:47:03.809Z,58.26
2023-02-13T14:50:07.650Z,58.90
2023-02-13T14:53:27.041Z,59.40
2023-02-13T14:56:31.540Z,59.78
2023-02-13T14:59:38.539Z,59.69
2023-02-13T15:02:49.641Z,59.58
2023-02-13T15:05:54.384Z,60.23
2023-02-13T15:23:34.700Z,61.78
2023-02-13T15:26:36.578Z,61.83
2023-02-13T15:30:13.274Z,61.81
2023-02-13T15:33:21.169Z,62.31
2023-02-13T15:36:26.112Z,62.57
2023-02-13T15:39:30.899Z,61.51
2023-02-13T15:42:33.722Z,61.85
2023-02-13T15:45:35.580Z,62.42
2023-02-13T15:48:37.866Z,63.26
2023-02-13T15:51:40.069Z,64.79
2023-02-13T15:54:53.657Z,65.55
2023-02-13T15:57:59.077Z,64.13
2023-02-13T16:01:05.636Z,64.05
2023-02-13T16:04:12.389Z,64.06
2023-02-13T16:07:15.357Z,64.41
2023-02-13T16:10:26.314Z,64.46
2023-02-13T16:13:28.147Z,65.61
2023-02-13T16:16:36.558Z,65.27
2023-02-13T16:19:53.174Z,65.43
2023-02-13T16:23:02.893Z,65.13
2023-02-13T16:26:12.611Z,65.69
2023-02-13T16:29:22.034Z,66.34
2023-02-13T16:32:34.340Z,66.63
2023-02-13T16:35:39.649Z,66.86
2023-02-13T16:38:49.631Z,66.15
2023-02-13T16:41:52.535Z,66.87
2023-02-13T16:45:21.203Z,66.42
2023-02-13T16:48:23.424Z,66.53
2023-02-13T16:51:25.231Z,67.02
2023-02-13T16:54:48.948Z,67.00
2023-02-13T16:57:51.049Z,67.48
2023-02-13T17:00:53.897Z,66.77
2023-02-13T17:03:56.061Z,67.21
2023-02-13T17:06:58.256Z,67.31
2023-02-13T17:10:17.240Z,67.30
2023-02-13T17:13:19.733Z,67.93
2023-02-13T17:16:22.113Z,68.66
2023-02-13T17:19:24.598Z,68.04
2023-02-13T17:22:40.022Z,68.78
2023-02-13T17:25:43.564Z,69.89
2023-02-13T17:28:45.776Z,69.99
2023-02-13T17:31:50.443Z,70.59
2023-02-13T17:34:52.854Z,70.14
2023-02-13T17:37:55.005Z,71.08
2023-02-13T17:40:57.700Z,71.43
2023-02-13T17:44:00.000Z,71.31
2023-02-13T17:47:02.058Z,71.91
2023-02-13T17:50:10.230Z,71.56
2023-02-13T17:53:22.895Z,72.32
2023-02-13T17:56:24.949Z,71.63
2023-02-13T17:59:27.270Z,71.75
2023-02-13T18:02:29.294Z,72.62
2023-02-13T18:05:33.130Z,73.01
2023-02-13T18:08:35.661Z,72.25
2023-02-13T18:11:37.858Z,71.32
2023-02-13T18:14:39.899Z,71.67
2023-02-13T18:17:42.436Z,72.10
2023-02-13T18:20:46.078Z,72.17
2023-02-13T18:23:52.421Z,72.57
2023-02-13T18:26:56.067Z,72.15
2023-02-13T18:29:58.202Z,73.55
2023-02-13T18:33:04.957Z,74.55
2023-02-13T18:36:08.839Z,74.54
2023-02-13T18:39:11.418Z,75.36
2023-02-13T18:42:14.071Z,74.43
2023-02-13T18:45:16.538Z,73.64
2023-02-13T18:48:18.799Z,73.70
2023-02-13T18:51:20.953Z,73.75
2023-02-13T18:54:23.878Z,72.71
2023-02-13T18:57:26.088Z,73.09
2023-02-13T19:00:30.571Z,73.47
2023-02-13T19:03:32.765Z,73.10
2023-02-13T19:06:39.319Z,73.38
2023-02-13T19:09:41.566Z,74.26
2023-02-13T19:12:43.671Z,74.26
2023-02-13T19:16:27.051Z,74.63
2023-02-13T19:19:29.455Z,74.66
2023-02-13T19:22:31.604Z,75.34
2023-02-13T19:25:37.294Z,75.22
2023-02-13T19:28:40.171Z,74.72
2023-02-13T19:31:42.378Z,74.61
2023-02-13T19:34:47.953Z,74.53
2023-02-13T19:37:50.106Z,75.07
2023-02-13T19:40:54.242Z,74.46
2023-02-13T19:43:56.735Z,74.82
2023-02-13T19:46:58.949Z,74.87
2023-02-13T19:50:00.875Z,74.55
2023-02-13T19:53:04.344Z,74.62
2023-02-13T19:56:08.084Z,74.83
2023-02-13T19:59:13.380Z,75.42
2023-02-13T20:02:17.315Z,75.67
2023-02-13T20:05:20.052Z,75.96
2023-02-13T20:08:22.228Z,75.81
2023-02-13T20:11:24.244Z,76.22
2023-02-13T20:14:26.246Z,75.59
2023-02-13T20:17:28.470Z,75.57
2023-02-13T20:20:30.638Z,75.93
2023-02-13T20:23:33.316Z,75.96
2023-02-13T20:26:35.792Z,75.61
2023-02-13T20:29:38.551Z,75.94
2023-02-13T20:32:41.761Z,76.02
2023-02-13T20:35:43.760Z,74.99
2023-02-13T20:38:46.633Z,74.45
2023-02-13T20:41:50.496Z,74.24
2023-02-13T20:44:52.742Z,73.78
2023-02-13T20:47:56.076Z,75.12
2023-02-13T20:51:03.134Z,74.83
2023-02-13T20:54:05.667Z,74.27
2023-02-13T20:57:07.767Z,74.13
2023-02-13T21:00:12.696Z,73.93
2023-02-13T21:03:14.960Z,73.40
2023-02-13T21:06:17.509Z,73.51
2023-02-13T21:09:19.998Z,73.28
2023-02-13T21:12:22.238Z,74.04
2023-02-13T21:15:24.325Z,73.47
2023-02-13T21:18:26.967Z,73.33
2023-02-13T21:21:31.893Z,73.22
2023-02-13T21:24:34.009Z,72.54
2023-02-13T21:27:35.883Z,72.45
2023-02-13T21:30:39.160Z,72.32
2023-02-13T21:33:41.215Z,72.03
2023-02-13T21:36:43.186Z,72.39
2023-02-13T21:39:45.452Z,71.38
2023-02-13T21:42:47.426Z,71.24
2023-02-13T21:45:49.473Z,71.78
2023-02-13T21:48:56.402Z,72.31
2023-02-13T21:51:58.441Z,71.24
2023-02-13T21:55:00.293Z,71.13
2023-02-13T21:58:02.330Z,71.04
2023-02-13T22:01:26.109Z,70.38
2023-02-13T22:04:29.403Z,70.64
2023-02-13T22:07:31.232Z,70.98
2023-02-13T22:10:33.126Z,70.12
2023-02-13T22:13:36.272Z,70.65
2023-02-13T22:16:39.298Z,70.31
2023-02-13T22:19:41.243Z,70.17
2023-02-13T22:22:43.178Z,70.25
2023-02-13T22:25:49.941Z,70.56
2023-02-13T22:28:53.166Z,70.63
2023-02-13T22:31:55.131Z,71.08
2023-02-13T22:34:57.067Z,71.65
2023-02-13T22:37:58.878Z,70.83
2023-02-13T22:41:14.946Z,70.94
2023-02-13T22:44:16.773Z,71.08
2023-02-13T22:47:18.582Z,71.71
2023-02-13T22:50:20.718Z,71.05
2023-02-13T22:53:22.842Z,71.30
2023-02-13T22:56:26.635Z,71.32
2023-02-13T22:59:28.555Z,71.45
2023-02-13T23:02:30.970Z,71.20
2023-02-13T23:05:32.976Z,70.08
2023-02-13T23:08:35.498Z,70.83
2023-02-13T23:11:55.942Z,69.93
2023-02-13T23:14:58.055Z,70.42
2023-02-13T23:18:13.126Z,69.98
2023-02-13T23:21:15.263Z,69.70
2023-02-13T23:24:17.632Z,70.33
2023-02-13T23:27:19.439Z,69.60
2023-02-13T23:30:21.392Z,69.32
2023-02-13T23:33:23.343Z,69.79
2023-02-13T23:36:25.385Z,69.31
2023-02-13T23:39:27.790Z,68.78
2023-02-13T23:42:29.999Z,69.04
2023-02-13T23:45:31.873Z,69.58
2023-02-13T23:48:34.265Z,70.20
2023-02-13T23:51:36.665Z,72.05
2023-02-13T23:54:38.790Z,72.67
2023-02-13T23:57:40.681Z,72.68
